Surgoinsville, Tennessee
Current Conditions -  °F | °C
As of 12:55 PM on Friday 21 Nov 2014 (Local Time) from K0VG Reporting Station
Clear Clear  
Wind Chill: 37°   Ceiling: Unl
Heat Index: 41°   Visibility: 10mi
Dew Point:   Wind: 6mph
Humidity: 26%   Direction: 190°S
Pressure: 30.47"   Gusts: NA
Location:  36.47°N, 82.85°W
Report Text: K0VG 211755Z AUTO 19005KT 10SM CLR 05/M13 A3047 RMK AO2
Loading
Personal Weather Stations






























Interactive Weather Map New forecast layout! Learn more

10-Day Weather Forecast

Advertisements
Track Severe Weather on mobile